createdAt,value
2018-05-31T00:00:59.486Z,23.75
2018-05-31T00:03:27.707Z,23.71
2018-05-31T00:05:55.914Z,23.68
2018-05-31T00:08:24.119Z,23.62
2018-05-31T00:10:52.352Z,23.59
2018-05-31T00:13:20.544Z,23.55
2018-05-31T00:15:48.764Z,23.53
2018-05-31T00:18:16.969Z,23.51
2018-05-31T00:20:45.195Z,23.48
2018-05-31T00:23:13.430Z,23.43
2018-05-31T00:25:41.663Z,23.40
2018-05-31T00:28:09.914Z,23.37
2018-05-31T00:30:38.110Z,23.33
2018-05-31T00:33:06.287Z,23.32
2018-05-31T00:35:34.578Z,23.33
2018-05-31T00:38:02.769Z,23.32
2018-05-31T00:40:31.010Z,23.27
2018-05-31T00:42:59.191Z,23.26
2018-05-31T00:45:27.480Z,23.27
2018-05-31T00:47:55.671Z,23.27
2018-05-31T00:50:23.914Z,23.25
2018-05-31T00:52:52.105Z,23.23
2018-05-31T00:58:22.754Z,23.19
2018-05-31T01:00:50.940Z,23.18
2018-05-31T01:03:19.136Z,23.17
2018-05-31T01:05:47.352Z,23.16
2018-05-31T01:08:15.542Z,23.16
2018-05-31T01:10:43.758Z,23.14
2018-05-31T01:13:11.968Z,23.17
2018-05-31T01:15:40.227Z,23.16
2018-05-31T01:18:08.421Z,23.18
2018-05-31T01:20:36.632Z,23.17
2018-05-31T01:23:04.795Z,23.18
2018-05-31T01:25:33.021Z,23.15
2018-05-31T01:28:01.314Z,23.14
2018-05-31T01:30:29.513Z,23.11
2018-05-31T01:32:57.738Z,23.10
2018-05-31T01:35:25.937Z,23.06
2018-05-31T01:40:48.690Z,23.02
2018-05-31T01:43:16.891Z,23.01
2018-05-31T01:45:45.090Z,22.95
2018-05-31T01:48:13.343Z,22.94
2018-05-31T01:50:41.530Z,22.93
2018-05-31T01:53:09.755Z,22.88
2018-05-31T01:55:38.000Z,22.84
2018-05-31T01:58:06.221Z,22.80
2018-05-31T02:00:34.429Z,22.78
2018-05-31T02:03:02.599Z,22.73
2018-05-31T02:05:30.805Z,22.70
2018-05-31T02:07:59.010Z,22.62
2018-05-31T02:10:27.240Z,22.61
2018-05-31T02:12:55.436Z,22.56
2018-05-31T02:15:23.613Z,22.54
2018-05-31T02:17:51.818Z,22.50
2018-05-31T02:20:20.008Z,22.47
2018-05-31T02:22:48.224Z,22.46
2018-05-31T02:25:16.441Z,22.45
2018-05-31T02:27:44.651Z,22.41
2018-05-31T02:30:12.881Z,22.36
2018-05-31T02:32:41.088Z,22.35
2018-05-31T02:35:09.312Z,22.24
2018-05-31T02:37:37.511Z,22.19
2018-05-31T02:40:05.729Z,22.11
2018-05-31T02:42:33.927Z,22.01
2018-05-31T02:45:02.159Z,21.95
2018-05-31T02:47:30.348Z,21.89
2018-05-31T02:49:58.545Z,21.86
2018-05-31T02:52:26.743Z,21.80
2018-05-31T02:54:54.930Z,21.75
2018-05-31T02:57:23.138Z,21.74
2018-05-31T02:59:51.312Z,21.73
2018-05-31T03:02:19.520Z,21.70
2018-05-31T03:04:47.728Z,21.70
2018-05-31T03:07:15.894Z,21.74
2018-05-31T03:09:44.115Z,21.73
2018-05-31T03:12:12.320Z,21.73
2018-05-31T03:14:40.543Z,21.71
2018-05-31T03:17:08.744Z,21.73
2018-05-31T03:19:36.966Z,21.73
2018-05-31T03:22:05.160Z,21.74
2018-05-31T03:24:33.346Z,21.73
2018-05-31T03:27:01.582Z,21.71
2018-05-31T03:29:29.812Z,21.71
2018-05-31T03:31:58.050Z,21.68
2018-05-31T03:34:26.309Z,21.68
2018-05-31T03:36:54.539Z,21.65
2018-05-31T03:39:22.699Z,21.63
2018-05-31T03:41:50.877Z,21.63
2018-05-31T03:44:19.084Z,21.62
2018-05-31T03:46:47.284Z,21.58
2018-05-31T03:49:15.571Z,21.56
2018-05-31T03:51:43.762Z,21.49
2018-05-31T03:54:11.922Z,21.52
2018-05-31T03:56:40.109Z,21.52
2018-05-31T03:59:08.300Z,21.50
2018-05-31T04:01:36.482Z,21.49
2018-05-31T04:04:04.665Z,21.52
2018-05-31T04:06:32.880Z,21.52
2018-05-31T04:09:01.063Z,21.53
2018-05-31T04:11:29.282Z,21.56
2018-05-31T04:13:57.480Z,21.63
2018-05-31T04:16:25.668Z,21.68
2018-05-31T04:19:07.978Z,21.72
2018-05-31T04:21:38.872Z,21.74
2018-05-31T04:24:07.353Z,21.74
2018-05-31T04:26:35.516Z,21.74
2018-05-31T04:29:03.794Z,21.73
2018-05-31T04:31:31.969Z,21.73
2018-05-31T04:34:00.210Z,21.70
2018-05-31T04:36:28.411Z,21.69
2018-05-31T04:38:56.649Z,21.69
2018-05-31T04:41:24.842Z,21.72
2018-05-31T04:43:53.011Z,21.74
2018-05-31T04:46:21.220Z,21.73
2018-05-31T04:48:49.402Z,21.75
2018-05-31T04:51:17.608Z,21.79
2018-05-31T04:53:45.831Z,21.81
2018-05-31T04:56:14.035Z,21.79
2018-05-31T04:58:42.310Z,21.79
2018-05-31T05:01:10.523Z,21.81
2018-05-31T05:03:38.703Z,21.85
2018-05-31T05:06:06.876Z,21.87
2018-05-31T05:08:35.077Z,21.92
2018-05-31T05:11:17.647Z,21.93
2018-05-31T05:13:47.813Z,21.96
2018-05-31T05:16:16.052Z,22.01
2018-05-31T05:18:44.275Z,22.03
2018-05-31T05:21:12.441Z,22.07
2018-05-31T05:23:40.659Z,22.11
2018-05-31T05:26:08.920Z,22.12
2018-05-31T05:28:37.097Z,22.23
2018-05-31T05:31:05.337Z,22.26
2018-05-31T05:33:33.505Z,22.28
2018-05-31T05:36:01.707Z,22.23
2018-05-31T05:38:29.965Z,22.27
2018-05-31T05:40:58.139Z,22.31
2018-05-31T05:43:26.381Z,22.39
2018-05-31T05:45:54.544Z,22.46
2018-05-31T05:48:22.726Z,22.55
2018-05-31T05:50:50.953Z,22.65
2018-05-31T05:53:19.163Z,22.73
2018-05-31T05:55:47.363Z,22.76
2018-05-31T05:58:15.564Z,22.85
2018-05-31T06:00:43.720Z,22.87
2018-05-31T06:03:11.909Z,22.91
2018-05-31T06:05:40.063Z,22.99
2018-05-31T06:08:08.268Z,23.02
2018-05-31T06:10:36.581Z,23.02
2018-05-31T06:13:04.789Z,23.03
2018-05-31T06:15:33.061Z,23.07
2018-05-31T06:18:01.192Z,23.15
2018-05-31T06:20:29.427Z,23.19
2018-05-31T06:22:57.608Z,23.25
2018-05-31T06:25:25.831Z,23.30
2018-05-31T06:27:54.024Z,23.34
2018-05-31T06:30:22.243Z,23.44
2018-05-31T06:32:50.455Z,23.54
2018-05-31T06:35:18.656Z,23.48
2018-05-31T06:37:46.840Z,23.58
2018-05-31T06:40:15.037Z,23.67
2018-05-31T06:42:43.210Z,23.78
2018-05-31T06:45:11.358Z,23.84
2018-05-31T06:47:39.549Z,23.90
2018-05-31T06:50:07.759Z,23.94
2018-05-31T06:52:35.919Z,23.99
2018-05-31T06:55:04.124Z,23.96
2018-05-31T06:57:32.294Z,24.06
2018-05-31T07:00:00.481Z,24.16
2018-05-31T07:02:28.642Z,24.19
2018-05-31T07:07:31.176Z,24.11
2018-05-31T07:09:59.351Z,24.24
2018-05-31T07:12:27.543Z,24.18
2018-05-31T07:14:55.746Z,23.99
2018-05-31T07:17:23.953Z,23.98
2018-05-31T07:19:52.134Z,24.12
2018-05-31T07:22:20.286Z,24.39
2018-05-31T07:24:48.486Z,24.41
2018-05-31T07:27:16.679Z,24.52
2018-05-31T07:29:44.883Z,24.71
2018-05-31T07:32:13.071Z,24.93
2018-05-31T07:34:41.275Z,25.09
2018-05-31T07:37:09.432Z,25.08
2018-05-31T07:39:37.593Z,25.05
2018-05-31T07:42:05.783Z,25.09
2018-05-31T07:44:33.932Z,24.91
2018-05-31T07:47:02.129Z,24.87
2018-05-31T07:49:30.319Z,24.67
2018-05-31T07:51:58.516Z,24.83
2018-05-31T07:54:26.714Z,24.94
2018-05-31T07:56:54.868Z,25.02
2018-05-31T07:59:23.071Z,25.35
2018-05-31T08:01:51.234Z,25.41
2018-05-31T08:04:19.490Z,25.66
2018-05-31T08:06:47.675Z,25.85
2018-05-31T08:09:15.836Z,25.69
2018-05-31T08:11:44.114Z,25.74
2018-05-31T08:14:12.298Z,25.56
2018-05-31T08:16:40.469Z,25.67
2018-05-31T08:19:08.681Z,25.84
2018-05-31T08:21:36.864Z,25.96
2018-05-31T08:24:05.022Z,25.79
2018-05-31T08:26:42.042Z,25.85
2018-05-31T08:29:13.684Z,26.07
2018-05-31T08:31:41.942Z,26.12
2018-05-31T08:34:10.232Z,25.80
2018-05-31T08:36:38.457Z,25.75
2018-05-31T08:39:06.689Z,25.95
2018-05-31T08:41:34.941Z,25.98
2018-05-31T08:44:03.212Z,25.88
2018-05-31T08:46:31.445Z,26.08
2018-05-31T08:48:59.686Z,25.99
2018-05-31T08:51:27.877Z,26.17
2018-05-31T08:53:56.042Z,26.03
2018-05-31T08:56:24.221Z,26.20
2018-05-31T08:58:52.441Z,26.38
2018-05-31T09:01:20.746Z,26.51
2018-05-31T09:03:48.887Z,26.53
2018-05-31T09:06:17.082Z,26.35
2018-05-31T09:08:45.247Z,26.41
2018-05-31T09:11:13.427Z,26.27
2018-05-31T09:13:41.642Z,26.16
2018-05-31T09:16:09.835Z,26.19
2018-05-31T09:18:38.112Z,26.27
2018-05-31T09:21:06.291Z,26.27
2018-05-31T09:23:34.440Z,26.34
2018-05-31T09:26:02.636Z,26.37
2018-05-31T09:28:30.823Z,26.46
2018-05-31T09:30:59.029Z,26.63
2018-05-31T09:33:27.164Z,26.79
2018-05-31T09:35:55.351Z,26.76
2018-05-31T09:38:23.507Z,26.85
2018-05-31T09:40:51.674Z,26.76
2018-05-31T09:43:19.861Z,26.62
2018-05-31T09:45:48.082Z,26.60
2018-05-31T09:48:16.276Z,26.64
2018-05-31T09:50:44.416Z,26.47
2018-05-31T09:53:12.621Z,26.58
2018-05-31T09:55:40.777Z,26.60
2018-05-31T09:58:08.989Z,26.52
2018-05-31T10:00:37.956Z,26.60
2018-05-31T10:03:06.100Z,26.77
2018-05-31T10:05:34.387Z,26.66
2018-05-31T10:08:04.378Z,26.62
2018-05-31T10:10:33.931Z,26.46
2018-05-31T10:13:03.127Z,26.46
2018-05-31T10:15:31.487Z,26.36
2018-05-31T10:18:00.799Z,26.28
2018-05-31T10:20:28.978Z,25.93
2018-05-31T10:22:57.164Z,25.71
2018-05-31T10:25:25.375Z,25.75
2018-05-31T10:27:54.354Z,25.85
2018-05-31T10:30:22.518Z,25.80
2018-05-31T10:32:50.714Z,25.62
2018-05-31T10:35:18.924Z,25.50
2018-05-31T10:37:47.117Z,25.48
2018-05-31T10:40:15.328Z,25.57
2018-05-31T10:42:43.535Z,25.77
2018-05-31T10:45:11.724Z,25.98
2018-05-31T10:47:39.888Z,26.01
2018-05-31T10:50:08.175Z,26.12
2018-05-31T10:52:36.457Z,26.07
2018-05-31T10:55:05.875Z,26.24
2018-05-31T10:57:35.108Z,26.20
2018-05-31T11:00:03.301Z,26.11
2018-05-31T11:02:31.694Z,25.94
2018-05-31T11:04:59.854Z,26.01
2018-05-31T11:07:28.007Z,25.99
2018-05-31T11:09:56.210Z,26.28
2018-05-31T11:12:24.364Z,26.33
2018-05-31T11:14:52.548Z,26.46
2018-05-31T11:17:20.732Z,26.59
2018-05-31T11:19:48.966Z,26.72
2018-05-31T11:22:17.138Z,26.72
2018-05-31T11:24:45.326Z,26.77
2018-05-31T11:27:13.498Z,26.73
2018-05-31T11:29:41.761Z,26.85
2018-05-31T11:32:09.927Z,26.86
2018-05-31T11:34:38.118Z,26.78
2018-05-31T11:37:06.320Z,26.85
2018-05-31T11:39:34.813Z,27.03
2018-05-31T11:42:02.989Z,26.97
2018-05-31T11:44:31.184Z,27.03
2018-05-31T11:46:59.317Z,27.25
2018-05-31T11:49:27.496Z,27.33
2018-05-31T11:51:55.658Z,27.57
2018-05-31T11:54:23.911Z,27.60
2018-05-31T11:56:52.093Z,27.82
2018-05-31T11:59:20.275Z,27.92
2018-05-31T12:01:48.600Z,27.99
2018-05-31T12:04:16.793Z,28.48
2018-05-31T12:06:44.989Z,29.07
2018-05-31T12:09:13.183Z,29.36
2018-05-31T12:11:41.345Z,29.96
2018-05-31T12:14:09.547Z,30.11
2018-05-31T12:16:37.710Z,30.42
2018-05-31T12:19:05.871Z,30.52
2018-05-31T12:21:34.054Z,30.73
2018-05-31T12:24:02.234Z,30.65
2018-05-31T12:26:30.418Z,30.45
2018-05-31T12:28:58.606Z,30.39
2018-05-31T12:31:26.773Z,30.71
2018-05-31T12:33:54.953Z,30.61
2018-05-31T12:36:23.125Z,30.85
2018-05-31T12:38:51.298Z,31.05
2018-05-31T12:41:19.496Z,31.01
2018-05-31T12:43:47.685Z,30.96
2018-05-31T12:46:15.866Z,31.02
2018-05-31T12:48:44.014Z,30.85
2018-05-31T12:51:12.208Z,30.49
2018-05-31T12:53:40.373Z,30.19
2018-05-31T12:56:08.591Z,29.76
2018-05-31T12:58:36.775Z,29.52
2018-05-31T13:01:04.967Z,29.22
2018-05-31T13:03:33.147Z,29.31
2018-05-31T13:06:01.360Z,29.27
2018-05-31T13:08:29.508Z,29.54
2018-05-31T13:10:57.655Z,30.01
2018-05-31T13:13:25.849Z,30.43
2018-05-31T13:15:54.015Z,31.24
2018-05-31T13:18:22.188Z,31.63
2018-05-31T13:20:50.347Z,31.80
2018-05-31T13:23:18.510Z,32.09
2018-05-31T13:25:46.788Z,31.92
2018-05-31T13:28:14.947Z,31.48
2018-05-31T13:30:43.166Z,32.01
2018-05-31T13:33:11.330Z,32.08
2018-05-31T13:35:39.517Z,32.17
2018-05-31T13:38:07.813Z,32.30
2018-05-31T13:40:35.959Z,32.14
2018-05-31T13:43:04.187Z,32.14
2018-05-31T13:45:32.335Z,32.15
2018-05-31T13:48:00.520Z,32.17
2018-05-31T13:50:28.723Z,32.32
2018-05-31T13:52:56.912Z,31.44
2018-05-31T13:55:25.075Z,31.54
2018-05-31T13:57:53.273Z,31.30
2018-05-31T14:00:21.452Z,30.91
2018-05-31T14:02:49.669Z,30.69
2018-05-31T14:05:17.828Z,30.64
2018-05-31T14:07:45.999Z,30.65
2018-05-31T14:10:14.180Z,30.90
2018-05-31T14:12:42.334Z,31.61
2018-05-31T14:15:10.528Z,32.07
2018-05-31T14:17:38.696Z,32.62
2018-05-31T14:20:06.900Z,32.54
2018-05-31T14:22:35.087Z,32.65
2018-05-31T14:25:03.264Z,32.92
2018-05-31T14:27:31.455Z,33.11
2018-05-31T14:29:59.662Z,33.50
2018-05-31T14:32:27.832Z,33.29
2018-05-31T14:34:56.039Z,32.92
2018-05-31T14:37:24.195Z,33.03
2018-05-31T14:39:52.378Z,33.54
2018-05-31T14:42:20.529Z,33.46
2018-05-31T14:44:48.724Z,33.30
2018-05-31T14:47:16.891Z,33.49
2018-05-31T14:49:45.066Z,32.95
2018-05-31T14:52:13.279Z,33.24
2018-05-31T14:54:41.462Z,33.43
2018-05-31T14:57:09.641Z,33.66
2018-05-31T14:59:37.854Z,34.30
2018-05-31T15:02:06.023Z,33.94
2018-05-31T15:04:34.189Z,33.88
2018-05-31T15:07:02.434Z,33.42
2018-05-31T15:09:30.724Z,33.13
2018-05-31T15:11:58.874Z,33.42
2018-05-31T15:14:27.086Z,33.86
2018-05-31T15:16:55.281Z,33.62
2018-05-31T15:19:23.471Z,33.61
2018-05-31T15:21:51.671Z,33.37
2018-05-31T15:24:19.932Z,33.36
2018-05-31T15:26:48.261Z,33.03
2018-05-31T15:29:16.459Z,32.81
2018-05-31T15:31:44.805Z,33.03
2018-05-31T15:34:13.096Z,33.11
2018-05-31T15:36:41.447Z,32.89
2018-05-31T15:39:09.690Z,32.76
2018-05-31T15:41:37.876Z,32.77
2018-05-31T15:44:06.220Z,32.69
2018-05-31T15:46:34.430Z,32.47
2018-05-31T15:49:02.666Z,32.43
2018-05-31T15:51:31.026Z,32.17
2018-05-31T15:53:59.234Z,32.28
2018-05-31T15:56:27.394Z,32.10
2018-05-31T15:58:55.602Z,31.68
2018-05-31T16:01:23.784Z,31.26
2018-05-31T16:03:51.975Z,30.93
2018-05-31T16:06:20.164Z,30.83
2018-05-31T16:08:48.359Z,30.69
2018-05-31T16:11:16.941Z,30.62
2018-05-31T16:13:45.174Z,30.42
2018-05-31T16:16:13.451Z,30.31
2018-05-31T16:18:42.292Z,30.26
2018-05-31T16:21:10.809Z,30.18
2018-05-31T16:23:39.548Z,30.05
2018-05-31T16:26:07.936Z,29.87
2018-05-31T16:28:36.332Z,29.64
2018-05-31T16:31:04.642Z,29.59
2018-05-31T16:33:32.855Z,29.59
2018-05-31T16:36:01.133Z,29.41
2018-05-31T16:38:29.322Z,29.41
2018-05-31T16:40:57.597Z,29.41
2018-05-31T16:43:25.897Z,29.44
2018-05-31T16:45:54.164Z,29.42
2018-05-31T16:48:22.406Z,29.43
2018-05-31T16:50:50.734Z,29.38
2018-05-31T16:53:19.208Z,29.40
2018-05-31T16:55:47.492Z,29.31
2018-05-31T16:58:15.813Z,29.28
2018-05-31T17:00:44.339Z,29.11
2018-05-31T17:03:12.667Z,29.13
2018-05-31T17:05:40.885Z,28.94
2018-05-31T17:08:09.210Z,28.87
2018-05-31T17:10:37.476Z,28.81
2018-05-31T17:13:05.742Z,28.80
2018-05-31T17:15:34.038Z,28.84
2018-05-31T17:18:02.503Z,28.79
2018-05-31T17:20:30.747Z,28.72
2018-05-31T17:22:59.004Z,28.70
2018-05-31T17:25:27.286Z,28.62
2018-05-31T17:27:55.591Z,28.52
2018-05-31T17:30:24.104Z,28.55
2018-05-31T17:32:52.291Z,28.52
2018-05-31T17:35:20.496Z,28.49
2018-05-31T17:37:48.761Z,28.51
2018-05-31T17:40:16.987Z,28.51
2018-05-31T17:42:45.213Z,28.44
2018-05-31T17:45:13.453Z,28.40
2018-05-31T17:47:41.665Z,28.28
2018-05-31T17:50:09.961Z,28.32
2018-05-31T17:52:38.249Z,28.22
2018-05-31T17:55:06.496Z,28.17
2018-05-31T17:57:34.737Z,27.93
2018-05-31T18:00:02.910Z,27.89
2018-05-31T18:02:31.078Z,27.90
2018-05-31T18:04:59.261Z,27.78
2018-05-31T18:07:27.438Z,27.74
2018-05-31T18:09:55.624Z,27.69
2018-05-31T18:12:23.819Z,27.55
2018-05-31T18:14:52.019Z,27.53
2018-05-31T18:17:20.205Z,27.50
2018-05-31T18:19:48.393Z,27.45
2018-05-31T18:22:16.580Z,27.39
2018-05-31T18:24:44.827Z,27.39
2018-05-31T18:27:13.000Z,27.41
2018-05-31T18:29:41.247Z,27.40
2018-05-31T18:32:11.247Z,27.34
2018-05-31T18:34:39.449Z,27.23
2018-05-31T18:37:07.688Z,27.19
2018-05-31T18:39:35.949Z,27.14
2018-05-31T18:42:04.107Z,27.11
2018-05-31T18:44:32.294Z,27.12
2018-05-31T18:47:00.501Z,27.10
2018-05-31T18:49:28.693Z,27.11
2018-05-31T18:51:57.018Z,27.04
2018-05-31T18:54:25.270Z,27.04
2018-05-31T18:56:53.487Z,27.05
2018-05-31T18:59:21.683Z,27.04
2018-05-31T19:01:49.880Z,27.02
2018-05-31T19:04:18.109Z,27.02
2018-05-31T19:06:46.288Z,26.98
2018-05-31T19:09:20.163Z,26.98
2018-05-31T19:11:48.354Z,26.92
2018-05-31T19:14:16.550Z,26.90
2018-05-31T19:16:44.772Z,26.87
2018-05-31T19:19:18.514Z,26.94
2018-05-31T19:21:46.722Z,26.86
2018-05-31T19:24:20.335Z,26.86
2018-05-31T19:26:48.506Z,26.82
2018-05-31T19:29:16.741Z,26.85
2018-05-31T19:31:44.913Z,26.76
2018-05-31T19:34:13.165Z,26.77
2018-05-31T19:36:47.045Z,26.69
2018-05-31T19:39:15.270Z,26.62
2018-05-31T19:41:43.470Z,26.61
2018-05-31T19:44:17.197Z,26.61
2018-05-31T19:46:45.370Z,26.57
2018-05-31T19:49:13.550Z,26.53
2018-05-31T19:51:47.355Z,26.49
2018-05-31T19:54:15.566Z,26.50
2018-05-31T19:56:43.723Z,26.50
2018-05-31T19:59:17.510Z,26.47
2018-05-31T20:01:51.257Z,26.50
2018-05-31T20:04:19.458Z,26.48
2018-05-31T20:06:47.629Z,26.40
2018-05-31T20:09:15.805Z,26.32
2018-05-31T20:11:44.014Z,26.24
2018-05-31T20:14:12.222Z,26.25
2018-05-31T20:16:40.432Z,26.22
2018-05-31T20:19:08.611Z,26.20
2018-05-31T20:21:36.837Z,26.16
2018-05-31T20:24:05.020Z,26.12
2018-05-31T20:26:33.275Z,26.10
2018-05-31T20:29:01.496Z,26.09
2018-05-31T20:31:29.711Z,26.05
2018-05-31T20:33:57.944Z,25.98
2018-05-31T20:36:26.120Z,25.92
2018-05-31T20:38:54.286Z,25.92
2018-05-31T20:41:22.528Z,25.93
2018-05-31T20:43:50.696Z,25.97
2018-05-31T20:46:18.909Z,26.00
2018-05-31T20:48:47.094Z,25.99
2018-05-31T20:51:15.326Z,25.91
2018-05-31T20:53:44.455Z,25.82
2018-05-31T20:56:12.650Z,25.78
2018-05-31T20:58:40.842Z,25.75
2018-05-31T21:01:09.020Z,25.70
2018-05-31T21:03:37.272Z,25.66
2018-05-31T21:06:05.433Z,25.64
2018-05-31T21:08:33.646Z,25.61
2018-05-31T21:11:01.852Z,25.55
2018-05-31T21:13:30.019Z,25.52
2018-05-31T21:15:58.185Z,25.51
2018-05-31T21:18:26.394Z,25.54
2018-05-31T21:20:54.605Z,25.48
2018-05-31T21:23:22.819Z,25.45
2018-05-31T21:25:50.971Z,25.44
2018-05-31T21:28:19.170Z,25.43
2018-05-31T21:30:47.349Z,25.41
2018-05-31T21:33:15.546Z,25.42
2018-05-31T21:35:43.811Z,25.35
2018-05-31T21:38:11.959Z,25.38
2018-05-31T21:40:40.242Z,25.37
2018-05-31T21:43:08.463Z,25.34
2018-05-31T21:45:36.643Z,25.35
2018-05-31T21:48:04.856Z,25.29
2018-05-31T21:50:33.039Z,25.26
2018-05-31T21:53:01.253Z,25.26
2018-05-31T21:55:29.437Z,25.24
2018-05-31T21:57:57.654Z,25.19
2018-05-31T22:00:40.288Z,25.18
2018-05-31T22:03:08.461Z,25.18
2018-05-31T22:05:36.717Z,25.14
2018-05-31T22:08:04.843Z,25.10
2018-05-31T22:10:33.036Z,25.05
2018-05-31T22:13:01.219Z,25.02
2018-05-31T22:15:29.397Z,25.02
2018-05-31T22:17:57.611Z,25.01
2018-05-31T22:20:25.791Z,24.97
2018-05-31T22:22:53.956Z,24.89
2018-05-31T22:25:22.167Z,24.87
2018-05-31T22:27:50.315Z,24.84
2018-05-31T22:30:18.514Z,24.84
2018-05-31T22:32:46.741Z,24.83
2018-05-31T22:35:14.888Z,24.84
2018-05-31T22:37:43.072Z,24.78
2018-05-31T22:40:11.285Z,24.79
2018-05-31T22:42:39.452Z,24.71
2018-05-31T22:45:07.646Z,24.66
2018-05-31T22:47:35.858Z,24.61
2018-05-31T22:50:04.062Z,24.56
2018-05-31T22:52:32.255Z,24.50
2018-05-31T22:55:00.435Z,24.48
2018-05-31T22:57:28.605Z,24.44
2018-05-31T22:59:56.830Z,24.42
2018-05-31T23:02:25.017Z,24.39
2018-05-31T23:04:53.212Z,24.34
2018-05-31T23:07:21.404Z,24.34
2018-05-31T23:09:49.625Z,24.30
2018-05-31T23:12:17.798Z,24.25
2018-05-31T23:14:46.010Z,24.20
2018-05-31T23:17:14.220Z,24.16
2018-05-31T23:19:42.431Z,24.18
2018-05-31T23:22:10.628Z,24.17
2018-05-31T23:24:38.800Z,24.14
2018-05-31T23:27:07.049Z,24.10
2018-05-31T23:29:35.323Z,24.11
2018-05-31T23:32:03.482Z,24.03
2018-05-31T23:34:31.670Z,24.00
2018-05-31T23:36:59.824Z,24.07
2018-05-31T23:39:28.026Z,23.99
2018-05-31T23:41:56.213Z,23.96
2018-05-31T23:44:24.423Z,23.94
2018-05-31T23:46:52.590Z,23.93
2018-05-31T23:49:20.853Z,23.88
2018-05-31T23:51:49.039Z,23.87
2018-05-31T23:54:17.232Z,23.81
2018-05-31T23:56:45.428Z,23.77
2018-05-31T23:59:13.639Z,23.75
